createdAt,value
2019-01-30T00:01:28.758Z,0.98
2019-01-30T00:03:57.089Z,0.95
2019-01-30T00:06:25.214Z,0.82
2019-01-30T00:08:53.274Z,0.80
2019-01-30T00:11:21.278Z,0.91
2019-01-30T00:13:49.237Z,0.99
2019-01-30T00:16:17.272Z,0.95
2019-01-30T00:18:47.921Z,0.91
2019-01-30T00:21:16.515Z,0.83
2019-01-30T00:23:44.916Z,0.86
2019-01-30T00:26:13.135Z,0.88
2019-01-30T00:28:40.829Z,0.88
2019-01-30T00:31:08.699Z,0.87
2019-01-30T00:33:36.859Z,0.90
2019-01-30T00:36:04.960Z,0.90
2019-01-30T00:38:33.350Z,0.90
2019-01-30T00:41:01.508Z,0.92
2019-01-30T00:43:29.615Z,0.83
2019-01-30T00:45:57.606Z,0.79
2019-01-30T00:48:25.723Z,0.76
2019-01-30T00:50:54.817Z,0.83
2019-01-30T00:53:22.916Z,0.88
2019-01-30T00:55:51.024Z,0.88
2019-01-30T00:58:19.115Z,0.90
2019-01-30T01:00:47.133Z,0.85
2019-01-30T01:03:15.352Z,0.86
2019-01-30T01:05:43.354Z,0.90
2019-01-30T01:08:12.532Z,0.94
2019-01-30T01:10:40.519Z,0.87
2019-01-30T01:13:08.539Z,0.84
2019-01-30T01:15:36.670Z,0.84
2019-01-30T01:18:04.928Z,0.86
2019-01-30T01:20:32.981Z,0.85
2019-01-30T01:23:01.181Z,0.85
2019-01-30T01:25:29.268Z,0.89
2019-01-30T01:27:57.305Z,0.85
2019-01-30T01:30:26.030Z,0.85
2019-01-30T01:32:54.053Z,0.88
2019-01-30T01:35:22.232Z,0.88
2019-01-30T01:37:50.203Z,0.89
2019-01-30T01:40:18.197Z,0.74
2019-01-30T01:42:46.222Z,0.67
2019-01-30T01:45:15.752Z,0.72
2019-01-30T01:47:43.958Z,0.77
2019-01-30T01:50:14.102Z,0.78
2019-01-30T01:52:42.083Z,0.74
2019-01-30T01:55:10.245Z,0.81
2019-01-30T01:57:38.388Z,0.82
2019-01-30T02:00:10.864Z,0.81
2019-01-30T02:02:38.834Z,0.81
2019-01-30T02:05:08.968Z,0.77
2019-01-30T02:07:37.050Z,0.77
2019-01-30T02:10:05.935Z,0.78
2019-01-30T02:12:33.965Z,0.80
2019-01-30T02:15:02.173Z,0.82
2019-01-30T02:17:30.312Z,0.83
2019-01-30T02:19:58.120Z,0.75
2019-01-30T02:22:26.169Z,0.80
2019-01-30T02:24:54.086Z,0.70
2019-01-30T02:27:21.937Z,0.75
2019-01-30T02:29:49.876Z,0.74
2019-01-30T02:32:18.042Z,0.73
2019-01-30T02:34:46.119Z,0.69
2019-01-30T02:37:14.542Z,0.69
2019-01-30T02:39:42.622Z,0.63
2019-01-30T02:42:10.930Z,0.65
2019-01-30T02:44:38.675Z,0.67
2019-01-30T02:47:06.770Z,0.68
2019-01-30T02:49:34.686Z,0.67
2019-01-30T02:52:04.279Z,0.68
2019-01-30T02:54:32.169Z,0.65
2019-01-30T02:57:00.107Z,0.50
2019-01-30T02:59:28.016Z,0.59
2019-01-30T03:02:14.377Z,0.59
2019-01-30T03:04:42.379Z,0.59
2019-01-30T03:07:10.159Z,0.47
2019-01-30T03:09:38.236Z,0.56
2019-01-30T03:12:06.258Z,0.55
2019-01-30T03:14:34.209Z,0.53
2019-01-30T03:17:02.227Z,0.56
2019-01-30T03:19:30.147Z,0.40
2019-01-30T03:21:58.338Z,0.39
2019-01-30T03:24:27.385Z,0.44
2019-01-30T03:26:55.454Z,0.47
2019-01-30T03:29:23.364Z,0.49
2019-01-30T03:31:51.464Z,0.49
2019-01-30T03:34:21.172Z,0.38
2019-01-30T03:36:49.185Z,0.36
2019-01-30T03:39:17.255Z,0.41
2019-01-30T03:41:45.294Z,0.39
2019-01-30T03:44:13.487Z,0.32
2019-01-30T03:46:41.691Z,0.34
2019-01-30T03:49:09.652Z,0.38
2019-01-30T03:51:37.817Z,0.39
2019-01-30T03:54:06.665Z,0.39
2019-01-30T03:56:34.816Z,0.41
2019-01-30T03:59:04.322Z,0.31
2019-01-30T04:01:32.470Z,0.32
2019-01-30T04:04:00.742Z,0.31
2019-01-30T04:06:29.041Z,0.26
2019-01-30T04:08:57.413Z,0.28
2019-01-30T04:11:25.291Z,0.23
2019-01-30T04:13:53.291Z,0.25
2019-01-30T04:16:21.420Z,0.28
2019-01-30T04:18:49.470Z,0.32
2019-01-30T04:21:17.374Z,0.31
2019-01-30T04:23:45.298Z,0.32
2019-01-30T04:26:13.299Z,0.33
2019-01-30T04:28:41.341Z,0.32
2019-01-30T04:31:09.374Z,0.29
2019-01-30T04:33:37.495Z,0.29
2019-01-30T04:36:05.534Z,0.26
2019-01-30T04:38:33.618Z,0.25
2019-01-30T04:41:01.448Z,0.29
2019-01-30T04:43:29.364Z,0.28
2019-01-30T04:45:57.442Z,0.28
2019-01-30T04:48:25.573Z,0.25
2019-01-30T04:50:53.614Z,0.24
2019-01-30T04:53:21.529Z,0.19
2019-01-30T04:55:49.454Z,0.26
2019-01-30T04:58:19.162Z,0.26
2019-01-30T05:00:46.934Z,0.27
2019-01-30T05:03:15.479Z,0.26
2019-01-30T05:05:43.246Z,0.26
2019-01-30T05:08:11.098Z,0.28
2019-01-30T05:10:38.900Z,0.28
2019-01-30T05:13:06.986Z,0.31
2019-01-30T05:15:35.053Z,0.31
2019-01-30T05:18:03.162Z,0.29
2019-01-30T05:20:33.030Z,0.17
2019-01-30T05:23:01.139Z,0.22
2019-01-30T05:25:29.237Z,0.18
2019-01-30T05:27:59.097Z,0.30
2019-01-30T05:30:28.887Z,0.22
2019-01-30T05:32:57.058Z,0.24
2019-01-30T05:35:25.046Z,0.23
2019-01-30T05:37:53.132Z,0.24
2019-01-30T05:40:21.325Z,0.23
2019-01-30T05:42:49.373Z,0.06
2019-01-30T05:45:17.679Z,0.05
2019-01-30T05:47:46.809Z,0.09
2019-01-30T05:50:15.108Z,0.14
2019-01-30T05:52:43.033Z,0.14
2019-01-30T05:55:11.495Z,0.15
2019-01-30T05:57:39.550Z,0.16
2019-01-30T06:00:24.455Z,0.14
2019-01-30T06:02:52.576Z,0.15
2019-01-30T06:05:20.882Z,0.21
2019-01-30T06:07:48.996Z,0.22
2019-01-30T06:10:16.964Z,0.15
2019-01-30T06:12:44.813Z,0.12
2019-01-30T06:15:13.296Z,0.14
2019-01-30T06:17:41.493Z,0.11
2019-01-30T06:20:13.051Z,0.11
2019-01-30T06:22:41.095Z,0.08
2019-01-30T06:25:09.339Z,0.11
2019-01-30T06:27:37.441Z,0.17
2019-01-30T06:30:06.734Z,0.18
2019-01-30T06:32:34.693Z,0.14
2019-01-30T06:35:02.601Z,0.12
2019-01-30T06:37:30.720Z,0.07
2019-01-30T06:39:58.699Z,0.04
2019-01-30T06:42:26.563Z,0.01
2019-01-30T06:44:54.523Z,0.00
2019-01-30T06:47:22.422Z,-0.05
2019-01-30T06:49:50.599Z,-0.06
2019-01-30T06:52:18.822Z,-0.06
2019-01-30T06:54:46.996Z,-0.13
2019-01-30T06:57:14.978Z,-0.17
2019-01-30T06:59:42.976Z,-0.12
2019-01-30T07:02:10.972Z,-0.03
2019-01-30T07:04:39.174Z,0.18
2019-01-30T07:07:07.421Z,0.30
2019-01-30T07:09:35.665Z,0.38
2019-01-30T07:12:04.003Z,0.46
2019-01-30T07:14:31.834Z,0.60
2019-01-30T07:16:59.960Z,0.73
2019-01-30T07:19:28.096Z,0.62
2019-01-30T07:21:55.971Z,0.73
2019-01-30T07:24:23.935Z,0.74
2019-01-30T07:26:52.057Z,0.69
2019-01-30T07:29:20.076Z,0.85
2019-01-30T07:31:48.070Z,0.84
2019-01-30T07:34:15.968Z,0.98
2019-01-30T07:36:43.965Z,1.14
2019-01-30T07:39:11.962Z,0.86
2019-01-30T07:41:39.844Z,0.80
2019-01-30T07:44:07.696Z,0.78
2019-01-30T07:46:35.864Z,0.81
2019-01-30T07:49:03.852Z,1.00
2019-01-30T07:51:31.931Z,1.09
2019-01-30T07:53:59.985Z,1.06
2019-01-30T07:56:29.001Z,1.01
2019-01-30T07:58:57.258Z,1.12
2019-01-30T08:01:25.221Z,1.07
2019-01-30T08:03:53.725Z,1.07
2019-01-30T08:06:22.064Z,1.08
2019-01-30T08:08:50.182Z,1.22
2019-01-30T08:11:18.387Z,1.15
2019-01-30T08:13:46.264Z,1.08
2019-01-30T08:16:14.070Z,1.15
2019-01-30T08:18:41.929Z,1.18
2019-01-30T08:21:09.843Z,1.30
2019-01-30T08:23:37.998Z,1.42
2019-01-30T08:26:06.200Z,1.37
2019-01-30T08:28:34.492Z,1.47
2019-01-30T08:31:03.087Z,1.57
2019-01-30T08:33:31.037Z,1.47
2019-01-30T08:35:59.155Z,1.44
2019-01-30T08:38:27.148Z,1.33
2019-01-30T08:40:55.154Z,1.26
2019-01-30T08:43:23.179Z,1.17
2019-01-30T08:45:51.256Z,1.17
2019-01-30T08:48:19.426Z,1.19
2019-01-30T08:50:47.471Z,1.33
2019-01-30T08:53:15.341Z,1.52
2019-01-30T08:55:43.354Z,1.73
2019-01-30T08:58:11.428Z,1.71
2019-01-30T09:00:39.284Z,1.84
2019-01-30T09:03:14.594Z,2.14
2019-01-30T09:05:37.296Z,2.31
2019-01-30T09:08:05.427Z,2.42
2019-01-30T09:10:33.522Z,2.30
2019-01-30T09:13:01.579Z,2.13
2019-01-30T09:15:29.609Z,2.10
2019-01-30T09:17:57.672Z,2.12
2019-01-30T09:20:25.874Z,1.95
2019-01-30T09:22:53.938Z,1.81
2019-01-30T09:25:23.711Z,1.65
2019-01-30T09:27:51.759Z,1.55
2019-01-30T09:30:40.749Z,1.56
2019-01-30T09:33:09.686Z,1.45
2019-01-30T09:35:37.597Z,1.70
2019-01-30T09:38:05.436Z,1.91
2019-01-30T09:40:33.399Z,1.86
2019-01-30T09:43:01.449Z,2.01
2019-01-30T09:45:29.569Z,2.13
2019-01-30T09:47:57.788Z,2.11
2019-01-30T09:50:26.026Z,2.19
2019-01-30T09:52:54.355Z,2.23
2019-01-30T09:55:22.942Z,2.11
2019-01-30T09:57:52.777Z,2.03
2019-01-30T10:00:24.374Z,1.98
2019-01-30T10:02:52.467Z,1.89
2019-01-30T10:05:20.494Z,2.02
2019-01-30T10:07:48.599Z,2.24
2019-01-30T10:10:19.340Z,2.32
2019-01-30T10:12:47.556Z,2.33
2019-01-30T10:15:17.538Z,2.44
2019-01-30T10:17:45.328Z,2.72
2019-01-30T10:20:16.117Z,2.94
2019-01-30T10:22:44.333Z,3.17
2019-01-30T10:25:12.603Z,3.48
2019-01-30T10:27:40.576Z,3.81
2019-01-30T10:30:11.208Z,3.97
2019-01-30T10:32:39.176Z,4.17
2019-01-30T10:35:07.097Z,4.01
2019-01-30T10:37:35.021Z,4.12
2019-01-30T10:40:03.509Z,4.06
2019-01-30T10:42:31.582Z,4.04
2019-01-30T10:44:59.843Z,3.69
2019-01-30T10:47:27.969Z,3.43
2019-01-30T10:49:55.978Z,3.42
2019-01-30T10:52:24.102Z,3.50
2019-01-30T10:54:53.605Z,3.59
2019-01-30T10:57:21.896Z,3.78
2019-01-30T10:59:50.144Z,3.49
2019-01-30T11:02:21.425Z,3.68
2019-01-30T11:04:49.486Z,4.11
2019-01-30T11:07:17.457Z,4.09
2019-01-30T11:09:45.410Z,3.68
2019-01-30T11:12:13.407Z,4.17
2019-01-30T11:14:41.218Z,4.45
2019-01-30T11:17:09.248Z,4.88
2019-01-30T11:19:37.152Z,5.21
2019-01-30T11:22:05.588Z,5.72
2019-01-30T11:24:33.588Z,5.80
2019-01-30T11:27:01.765Z,5.42
2019-01-30T11:29:29.922Z,5.63
2019-01-30T11:31:57.988Z,5.51
2019-01-30T11:34:25.848Z,5.58
2019-01-30T11:36:53.756Z,5.26
2019-01-30T11:39:21.792Z,5.33
2019-01-30T11:41:49.955Z,5.02
2019-01-30T11:44:18.044Z,4.78
2019-01-30T11:46:45.999Z,4.59
2019-01-30T11:49:14.253Z,4.29
2019-01-30T11:51:42.157Z,4.24
2019-01-30T11:54:10.341Z,4.02
2019-01-30T11:56:39.349Z,3.96
2019-01-30T11:59:07.297Z,3.86
2019-01-30T12:01:35.570Z,3.73
2019-01-30T12:04:04.075Z,3.58
2019-01-30T12:06:32.096Z,3.57
2019-01-30T12:09:00.198Z,3.40
2019-01-30T12:11:29.099Z,3.16
2019-01-30T12:13:57.090Z,3.07
2019-01-30T12:16:25.065Z,3.09
2019-01-30T12:18:53.127Z,2.97
2019-01-30T12:21:21.040Z,2.98
2019-01-30T12:23:48.989Z,2.88
2019-01-30T12:26:16.959Z,2.88
2019-01-30T12:28:45.307Z,2.77
2019-01-30T12:31:13.244Z,2.70
2019-01-30T12:33:41.284Z,2.80
2019-01-30T12:36:09.349Z,2.73
2019-01-30T12:38:38.257Z,2.80
2019-01-30T12:41:06.197Z,2.68
2019-01-30T12:43:34.126Z,2.62
2019-01-30T12:46:02.042Z,2.67
2019-01-30T12:48:30.069Z,2.61
2019-01-30T12:50:58.148Z,2.60
2019-01-30T12:53:25.967Z,2.46
2019-01-30T12:55:54.171Z,2.51
2019-01-30T12:58:22.356Z,2.55
2019-01-30T13:00:50.635Z,2.61
2019-01-30T13:03:18.727Z,2.59
2019-01-30T13:05:46.745Z,2.53
2019-01-30T13:08:14.702Z,2.64
2019-01-30T13:10:42.694Z,2.69
2019-01-30T13:13:10.891Z,2.80
2019-01-30T13:15:40.474Z,2.67
2019-01-30T13:18:18.046Z,2.72
2019-01-30T13:20:38.751Z,2.81
2019-01-30T13:23:06.764Z,2.80
2019-01-30T13:25:35.760Z,2.83
2019-01-30T13:28:05.228Z,2.88
2019-01-30T13:30:37.728Z,3.00
2019-01-30T13:33:07.142Z,3.00
2019-01-30T13:35:35.130Z,3.05
2019-01-30T13:38:03.358Z,3.04
2019-01-30T13:40:33.683Z,2.99
2019-01-30T13:43:01.939Z,2.98
2019-01-30T13:45:30.569Z,3.15
2019-01-30T13:47:58.586Z,3.41
2019-01-30T13:50:27.879Z,3.53
2019-01-30T13:52:55.884Z,3.70
2019-01-30T13:55:23.790Z,4.00
2019-01-30T13:57:51.854Z,4.40
2019-01-30T14:00:25.110Z,4.65
2019-01-30T14:02:53.205Z,4.85
2019-01-30T14:05:21.628Z,4.90
2019-01-30T14:07:50.065Z,4.56
2019-01-30T14:10:18.221Z,4.53
2019-01-30T14:12:46.147Z,4.63
2019-01-30T14:15:15.705Z,4.62
2019-01-30T14:17:43.717Z,4.83
2019-01-30T14:20:12.296Z,4.71
2019-01-30T14:22:40.387Z,4.76
2019-01-30T14:25:09.189Z,4.82
2019-01-30T14:27:37.023Z,4.75
2019-01-30T14:30:08.689Z,4.82
2019-01-30T14:32:36.677Z,4.69
2019-01-30T14:35:10.773Z,4.91
2019-01-30T14:37:35.358Z,4.77
2019-01-30T14:40:04.586Z,4.70
2019-01-30T14:42:35.076Z,4.54
2019-01-30T14:45:07.263Z,4.47
2019-01-30T14:47:35.134Z,4.18
2019-01-30T14:50:04.138Z,4.17
2019-01-30T14:52:31.988Z,4.20
2019-01-30T14:55:00.247Z,4.35
2019-01-30T14:57:28.523Z,4.06
2019-01-30T14:59:56.504Z,4.11
2019-01-30T15:02:24.489Z,3.98
2019-01-30T15:04:52.673Z,3.75
2019-01-30T15:07:28.824Z,3.66
2019-01-30T15:09:50.406Z,3.52
2019-01-30T15:12:18.520Z,3.43
2019-01-30T15:14:46.589Z,3.49
2019-01-30T15:17:14.824Z,3.42
2019-01-30T15:19:42.852Z,3.18
2019-01-30T15:22:11.108Z,3.07
2019-01-30T15:24:39.274Z,2.95
2019-01-30T15:27:07.672Z,3.00
2019-01-30T15:29:35.587Z,2.96
2019-01-30T15:32:03.940Z,2.71
2019-01-30T15:34:31.888Z,2.84
2019-01-30T15:36:59.776Z,2.72
2019-01-30T15:39:27.860Z,2.81
2019-01-30T15:41:56.098Z,2.81
2019-01-30T15:44:25.182Z,2.73
2019-01-30T15:46:53.185Z,2.66
2019-01-30T15:49:21.150Z,2.63
2019-01-30T15:51:48.927Z,2.52
2019-01-30T15:54:18.785Z,2.46
2019-01-30T15:56:46.986Z,2.45
2019-01-30T15:59:14.996Z,2.31
2019-01-30T16:01:44.892Z,2.38
2019-01-30T16:04:13.887Z,2.35
2019-01-30T16:06:41.956Z,2.32
2019-01-30T16:09:09.939Z,2.32
2019-01-30T16:11:37.805Z,2.27
2019-01-30T16:14:05.905Z,2.31
2019-01-30T16:16:33.899Z,2.26
2019-01-30T16:19:01.795Z,2.30
2019-01-30T16:21:31.131Z,2.27
2019-01-30T16:24:02.002Z,2.28
2019-01-30T16:26:29.919Z,2.29
2019-01-30T16:28:57.755Z,2.28
2019-01-30T16:31:25.839Z,2.18
2019-01-30T16:33:53.904Z,2.19
2019-01-30T16:36:21.867Z,2.20
2019-01-30T16:38:49.943Z,2.20
2019-01-30T16:41:18.018Z,2.18
2019-01-30T16:43:46.058Z,2.17
2019-01-30T16:46:15.560Z,2.17
2019-01-30T16:48:43.797Z,2.17
2019-01-30T16:51:11.942Z,2.15
2019-01-30T16:53:40.049Z,2.24
2019-01-30T16:56:08.181Z,2.10
2019-01-30T16:58:36.228Z,2.11
2019-01-30T17:01:04.549Z,2.09
2019-01-30T17:03:32.595Z,2.07
2019-01-30T17:06:07.482Z,2.10
2019-01-30T17:08:33.171Z,2.15
2019-01-30T17:11:01.310Z,2.08
2019-01-30T17:13:29.302Z,2.04
2019-01-30T17:15:57.380Z,2.00
2019-01-30T17:18:25.260Z,2.01
2019-01-30T17:20:53.101Z,1.97
2019-01-30T17:23:21.124Z,1.89
2019-01-30T17:25:49.264Z,1.90
2019-01-30T17:28:17.067Z,1.86
2019-01-30T17:30:54.326Z,1.87
2019-01-30T17:33:22.210Z,1.89
2019-01-30T17:35:50.155Z,1.93
2019-01-30T17:38:18.049Z,1.97
2019-01-30T17:40:46.354Z,1.97
2019-01-30T17:43:14.473Z,1.96
2019-01-30T17:45:42.461Z,1.95
2019-01-30T17:48:11.762Z,2.01
2019-01-30T17:50:40.382Z,1.99
2019-01-30T17:53:08.220Z,1.98
2019-01-30T17:55:37.709Z,1.86
2019-01-30T17:58:06.745Z,1.81
2019-01-30T18:00:52.481Z,1.95
2019-01-30T18:03:20.610Z,1.89
2019-01-30T18:05:48.618Z,1.86
2019-01-30T18:08:22.362Z,1.89
2019-01-30T18:10:50.495Z,1.81
2019-01-30T18:13:18.146Z,1.83
2019-01-30T18:15:45.882Z,1.81
2019-01-30T18:18:13.486Z,1.80
2019-01-30T18:20:41.321Z,1.82
2019-01-30T18:23:09.050Z,1.83
2019-01-30T18:25:36.785Z,1.66
2019-01-30T18:28:04.533Z,1.65
2019-01-30T18:30:32.268Z,1.59
2019-01-30T18:32:59.901Z,1.57
2019-01-30T18:35:27.881Z,1.57
2019-01-30T18:37:55.430Z,1.61
2019-01-30T18:40:23.079Z,1.63
2019-01-30T18:42:50.686Z,1.69
2019-01-30T18:45:26.671Z,1.65
2019-01-30T18:47:54.429Z,1.64
2019-01-30T18:50:24.067Z,1.65
2019-01-30T18:52:51.675Z,1.60
2019-01-30T18:55:19.517Z,1.55
2019-01-30T18:57:47.768Z,1.55
2019-01-30T19:00:27.088Z,1.52
2019-01-30T19:02:56.358Z,1.60
2019-01-30T19:05:24.225Z,1.56
2019-01-30T19:07:51.979Z,1.56
2019-01-30T19:10:19.705Z,1.51
2019-01-30T19:12:47.371Z,1.48
2019-01-30T19:15:17.316Z,1.47
2019-01-30T19:17:44.885Z,1.50
2019-01-30T19:20:15.768Z,1.54
2019-01-30T19:22:43.365Z,1.53
2019-01-30T19:25:11.527Z,1.52
2019-01-30T19:27:39.123Z,1.48
2019-01-30T19:30:10.990Z,1.43
2019-01-30T19:32:38.660Z,1.39
2019-01-30T19:35:06.595Z,1.44
2019-01-30T19:37:34.264Z,1.45
2019-01-30T19:40:01.922Z,1.42
2019-01-30T19:42:29.577Z,1.44
2019-01-30T19:44:57.302Z,1.39
2019-01-30T19:47:24.891Z,1.30
2019-01-30T19:49:52.582Z,1.31
2019-01-30T19:52:20.241Z,1.27
2019-01-30T19:54:48.115Z,1.27
2019-01-30T19:57:15.650Z,1.27
2019-01-30T19:59:43.440Z,1.28
2019-01-30T20:02:11.090Z,1.16
2019-01-30T20:04:41.620Z,1.09
2019-01-30T20:07:14.861Z,1.11
2019-01-30T20:09:38.890Z,1.13
2019-01-30T20:12:06.480Z,1.06
2019-01-30T20:14:34.168Z,1.09
2019-01-30T20:17:01.789Z,0.99
2019-01-30T20:19:29.467Z,0.92
2019-01-30T20:21:57.102Z,0.85
2019-01-30T20:24:26.568Z,0.82
2019-01-30T20:26:54.167Z,0.79
2019-01-30T20:29:22.842Z,0.73
2019-01-30T20:31:50.583Z,0.75
2019-01-30T20:34:18.321Z,0.75
2019-01-30T20:36:46.047Z,0.74
2019-01-30T20:39:16.454Z,0.74
2019-01-30T20:41:44.227Z,0.67
2019-01-30T20:44:11.961Z,0.67
2019-01-30T20:46:39.744Z,0.67
2019-01-30T20:49:07.535Z,0.64
2019-01-30T20:51:35.262Z,0.62
2019-01-30T20:54:03.001Z,0.67
2019-01-30T20:56:30.695Z,0.69
2019-01-30T20:58:58.354Z,0.63
2019-01-30T21:01:26.490Z,0.63
2019-01-30T21:03:54.408Z,0.63
2019-01-30T21:06:22.483Z,0.62
2019-01-30T21:08:50.511Z,0.56
2019-01-30T21:11:18.144Z,0.56
2019-01-30T21:13:45.727Z,0.54
2019-01-30T21:16:13.402Z,0.56
2019-01-30T21:18:41.030Z,0.54
2019-01-30T21:21:08.700Z,0.55
2019-01-30T21:23:36.351Z,0.53
2019-01-30T21:26:04.114Z,0.56
2019-01-30T21:28:32.102Z,0.50
2019-01-30T21:31:00.161Z,0.47
2019-01-30T21:33:28.204Z,0.48
2019-01-30T21:35:56.519Z,0.47
2019-01-30T21:38:24.584Z,0.47
2019-01-30T21:40:52.524Z,0.43
2019-01-30T21:43:20.557Z,0.41
2019-01-30T21:45:48.776Z,0.43
2019-01-30T21:48:16.844Z,0.39
2019-01-30T21:50:44.828Z,0.34
2019-01-30T21:53:12.791Z,0.28
2019-01-30T21:55:40.754Z,0.28
2019-01-30T21:58:09.110Z,0.24
2019-01-30T22:00:37.002Z,0.19
2019-01-30T22:03:05.067Z,0.07
2019-01-30T22:05:32.814Z,0.03
2019-01-30T22:08:01.377Z,0.00
2019-01-30T22:10:29.554Z,-0.02
2019-01-30T22:12:57.153Z,-0.07
2019-01-30T22:15:26.503Z,-0.07
2019-01-30T22:17:54.118Z,-0.08
2019-01-30T22:20:23.417Z,-0.08
2019-01-30T22:22:51.030Z,-0.15
2019-01-30T22:25:20.708Z,-0.15
2019-01-30T22:27:49.288Z,-0.20
2019-01-30T22:30:22.154Z,-0.25
2019-01-30T22:32:50.297Z,-0.38
2019-01-30T22:35:18.074Z,-0.52
2019-01-30T22:37:45.764Z,-0.55
2019-01-30T22:40:14.019Z,-0.48
2019-01-30T22:42:41.752Z,-0.43
2019-01-30T22:45:11.779Z,-0.49
2019-01-30T22:47:39.476Z,-0.55
2019-01-30T22:50:08.141Z,-0.62
2019-01-30T22:52:35.824Z,-0.60
2019-01-30T22:55:04.733Z,-0.59
2019-01-30T22:57:32.463Z,-0.61
2019-01-30T23:00:00.098Z,-0.57
2019-01-30T23:02:28.986Z,-0.56
2019-01-30T23:05:24.841Z,-0.59
2019-01-30T23:08:09.202Z,-0.66
2019-01-30T23:11:19.944Z,-0.68
2019-01-30T23:14:35.455Z,-0.75
2019-01-30T23:17:49.496Z,-0.79
2019-01-30T23:20:30.297Z,-0.77
2019-01-30T23:23:23.935Z,-0.72
2019-01-30T23:26:13.408Z,-0.73
2019-01-30T23:29:14.345Z,-0.72
2019-01-30T23:32:00.811Z,-0.73
2019-01-30T23:35:01.760Z,-0.76
2019-01-30T23:38:06.863Z,-0.76
2019-01-30T23:40:51.938Z,-0.82
2019-01-30T23:43:48.482Z,-0.89
2019-01-30T23:46:38.423Z,-0.96
2019-01-30T23:49:44.460Z,-1.00
2019-01-30T23:52:39.787Z,-1.00
2019-01-30T23:55:48.346Z,-1.02
2019-01-30T23:58:53.563Z,-1.02
